Latest Weather Observations for Parawa West

IDS60801

Issued at 7:21 am CDT Thursday 28 October 2021 (issued every 10 minutes, with the page automatically refreshed every 10 minutes)

About weather observations | Map of weather stations | Latest weather observations for SA | Other Formats
Station Details ID: 023875 Name: SECOND VALLEY FOREST AWS Lat: -35.57 Lon: 138.29 Height: 341.0 m
Data from the previous 72 hours. | See also: Recent months at Parawa West
Date/Time
CDT
Temp
°C
App
Temp
°C
Dew
Point
°C
Rel
Hum
%
Delta-T
°C
Wind Press
QNH
hPa
Press
MSL
hPa
Rain since
9am
mm
Dir  Spd
km/h
Gust
km/h
Spd
kts
Gust
kts
28/07:00am 11.7 9.8 11.7 100 0.0 ESE 13 22 7 12 1009.0 1008.7 2.0
28/06:41am 11.6 8.5 11.6 100 0.0 SE 19 30 10 16 1009.5 1009.2 1.6
28/06:30am 11.5 7.4 11.5 100 0.0 ESE 24 33 13 18 1007.4 1007.1 1.6
28/06:00am 11.4 8.2 11.4 100 0.0 SE 19 28 10 15 1008.5 1008.2 1.6
28/05:30am 11.5 7.8 11.5 100 0.0 SE 22 28 12 15 1008.3 1008.0 1.6
28/05:00am 11.5 7.4 11.5 100 0.0 SE 24 32 13 17 1007.7 1007.5 1.4
28/04:30am 11.5 7.4 11.5 100 0.0 SE 24 33 13 18 1007.5 1007.2 1.4
28/04:00am 11.5 7.4 11.5 100 0.0 SSE 24 28 13 15 1008.6 1008.3 1.4
28/03:30am 11.7 8.4 11.7 100 0.0 SSE 20 30 11 16 1008.9 1008.6 1.4
28/03:00am 11.7 8.4 11.7 100 0.0 SSE 20 28 11 15 1009.0 1008.7 1.4
28/02:30am 11.8 8.2 11.8 100 0.0 SSE 22 30 12 16 1009.2 1008.9 1.4
28/02:00am 11.8 8.8 11.8 100 0.0 SE 19 26 10 14 1009.6 1009.3 1.4
28/01:30am 11.8 8.2 11.8 100 0.0 SSE 22 26 12 14 1010.5 1010.3 1.4
28/01:00am 11.9 8.3 11.9 100 0.0 S 22 28 12 15 1011.2 1010.9 1.4
28/12:30am 12.3 10.6 12.3 100 0.0 S 13 19 7 10 1011.5 1011.2 1.0
28/12:00am 12.5 10.1 12.5 100 0.0 SSE 17 22 9 12 1011.1 1010.8 0.4
 
Date/Time
CDT
Temp
°C
App
Temp
°C
Dew
Point
°C
Rel
Hum
%
Delta-T
°C
Wind Press
QNH
hPa
Press
MSL
hPa
Rain since
9am
mm
Dir  Spd
km/h
Gust
km/h
Spd
kts
Gust
kts
27/11:30pm 12.6 9.8 12.6 100 0.0 S 19 22 10 12 1011.4 1011.1 0.4
27/11:00pm 12.7 9.9 12.7 100 0.0 S 19 24 10 13 1011.4 1011.1 0.4
27/10:30pm 13.0 10.1 13.0 100 0.0 S 20 26 11 14 1011.4 1011.1 0.4
27/10:00pm 13.4 10.8 13.2 99 0.1 SSE 19 24 10 13 1011.1 1010.8 0.4
27/09:30pm 13.4 10.6 13.2 99 0.1 SSE 20 26 11 14 1010.8 1010.6 0.4
27/09:00pm 13.9 11.4 13.6 98 0.2 SSE 19 24 10 13 1010.7 1010.5 0.4
27/08:30pm 14.4 12.8 13.9 97 0.3 S 15 20 8 11 1010.3 1010.1 0.4
27/08:00pm 14.4 13.4 13.4 94 0.6 SSE 11 15 6 8 1010.0 1009.7 0.4
27/07:30pm 15.2 13.7 13.1 87 1.2 S 13 17 7 9 1009.6 1009.3 0.4
27/07:00pm 19.5 19.9 12.5 64 4.0 WSW 2 6 1 3 1009.2 1008.9 0.4
27/06:30pm 20.3 19.8 12.5 61 4.5 WNW 7 11 4 6 1009.2 1008.9 0.4
27/06:00pm 20.1 19.8 13.3 65 3.9 NW 7 11 4 6 1009.1 1008.8 0.4
27/05:30pm 20.3 19.6 14.2 68 3.6 NW 11 17 6 9 1008.8 1008.5 0.4
27/05:00pm 20.5 19.1 14.6 69 3.5 NW 15 22 8 12 1008.7 1008.4 0.4
27/04:30pm 21.4 19.5 13.1 59 4.8 NW 15 24 8 13 1008.5 1008.2 0.4
27/04:00pm 21.3 20.3 13.5 61 4.6 NW 11 22 6 12 1008.5 1008.2 0.4
27/03:30pm 22.3 20.4 13.1 56 5.4 NW 15 24 8 13 1008.8 1008.5 0.4
27/03:00pm 23.5 22.8 13.1 52 6.1 NNW 9 20 5 11 1008.8 1008.5 0.2
27/02:30pm 23.9 24.2 14.9 57 5.5 NNE 7 26 4 14 1009.1 1008.8 0.2
27/02:00pm 21.4 20.4 13.3 60 4.7 NE 11 20 6 11 1009.2 1008.9 0.2
27/01:30pm 20.3 18.5 13.3 64 4.1 ENE 15 20 8 11 1009.2 1008.9 0.2
27/01:00pm 20.1 17.8 14.0 68 3.6 E 19 24 10 13 1009.2 1008.9 0.2
27/12:30pm 18.7 17.8 12.7 68 3.4 NE 9 22 5 12 1010.0 1009.7 0.2
27/12:00pm 17.0 16.1 11.3 69 3.1 NNE 7 11 4 6 1011.6 1011.3 0.2
27/11:30am 18.4 15.3 8.9 54 5.0 W 15 24 8 13 1012.2 1011.9 0.0
27/11:00am 18.6 15.4 6.8 46 6.0 WNW 13 33 7 18 1011.4 1011.1 0.0
27/10:30am 19.5 15.4 6.3 42 6.7 NW 17 26 9 14 1011.2 1010.9 0.0
27/10:00am 19.2 14.0 2.6 33 7.8 NW 19 35 10 19 1011.1 1010.8 0.0
27/09:30am 20.5 15.6 -0.2 25 9.3 NW 15 26 8 14 1010.2 1010.0 0.0
27/09:00am 20.5 14.7 -0.2 25 9.3 NW 20 32 11 17 1010.5 1010.3 0.0
27/08:30am 20.5 15.6 -0.7 24 9.5 NW 15 24 8 13 1010.0 1009.7 0.0
27/08:00am 20.9 16.9 -2.2 21 10.0 NW 9 20 5 11 1009.2 1008.9 0.0
27/07:30am 20.8 16.7 -3.0 20 10.2 WNW 9 20 5 11 1008.9 1008.6 0.0
27/07:00am 20.7 16.9 -3.7 19 10.3 SW 7 20 4 11 1008.1 1007.8 0.0
27/06:30am 19.7 16.2 -3.2 21 9.7 WNW 6 13 3 7 1007.6 1007.4 0.0
27/06:00am 19.6 15.7 -4.6 19 9.9 WNW 7 17 4 9 1007.8 1007.6 0.0
27/05:30am 19.4 15.6 -4.1 20 9.7 W 7 15 4 8 1007.5 1007.2 0.0
27/05:00am 19.5 15.6 -4.7 19 9.9 SSW 7 26 4 14 1007.6 1007.4 0.0
27/04:30am 19.1 15.5 -3.7 21 9.5 SSE 6 15 3 8 1008.1 1007.8 0.0
27/04:00am 20.1 16.4 -4.9 18 10.2 ENE 6 13 3 7 1008.3 1008.0 0.0
27/03:30am 19.6 16.4 -3.9 20 9.8 ENE 4 9 2 5 1008.6 1008.3 0.0
27/03:00am 20.0 16.4 -3.6 20 9.9 SW 6 20 3 11 1008.8 1008.5 0.0
27/02:30am 20.4 16.6 -4.0 19 10.2 W 7 19 4 10 1009.2 1008.9 0.0
27/02:00am 19.4 15.9 -2.8 22 9.4 WSW 6 19 3 10 1009.3 1009.0 0.0
27/01:30am 18.9 15.5 -2.1 24 9.0 SW 6 15 3 8 1009.8 1009.5 0.0
27/01:00am 18.3 15.4 -1.0 27 8.4 WNW 4 13 2 7 1010.1 1009.9 0.0
27/12:30am 17.0 14.2 -0.2 31 7.5 NE 4 7 2 4 1010.5 1010.3 0.0
27/12:00am 17.6 14.7 -1.1 28 8.1 NNE 4 7 2 4 1010.9 1010.7 0.0
 
Date/Time
CDT
Temp
°C
App
Temp
°C
Dew
Point
°C
Rel
Hum
%
Delta-T
°C
Wind Press
QNH
hPa
Press
MSL
hPa
Rain since
9am
mm
Dir  Spd
km/h
Gust
km/h
Spd
kts
Gust
kts
26/11:30pm 17.4 14.1 0.1 31 7.6 NE 7 11 4 6 1011.4 1011.1 0.0
26/11:00pm 17.3 14.2 1.3 34 7.2 NE 7 17 4 9 1011.8 1011.5 0.0
26/10:30pm 19.1 13.7 1.1 30 8.2 NE 19 26 10 14 1011.9 1011.6 0.0
26/10:00pm 19.1 14.1 1.6 31 8.1 NE 17 24 9 13 1012.4 1012.1 0.0
26/09:30pm 20.0 15.1 1.9 30 8.5 NE 17 22 9 12 1012.6 1012.4 0.0
26/09:00pm 20.1 14.7 2.5 31 8.3 ENE 20 22 11 12 1012.7 1012.5 0.0
26/08:30pm 20.2 15.9 3.4 33 8.1 ENE 15 19 8 10 1012.7 1012.5 0.0
26/08:00pm 19.7 15.5 3.8 35 7.7 ENE 15 17 8 9 1012.7 1012.5 0.0
26/07:30pm 20.1 17.0 3.8 34 7.9 ENE 9 11 5 6 1012.6 1012.4 0.0
26/07:00pm 21.7 19.0 2.4 28 9.2 NE 6 9 3 5 1012.6 1012.4 0.0
26/06:30pm 22.2 20.2 4.3 31 8.9 NE 4 6 2 3 1012.5 1012.2 0.0
26/06:00pm 23.2 21.4 5.2 31 9.2 NE 4 7 2 4 1012.6 1012.4 0.0
26/05:30pm 23.7 21.3 4.1 28 9.8 NE 6 11 3 6 1013.1 1012.9 0.0
26/05:00pm 24.3 22.0 3.0 25 10.5 N 4 9 2 5 1013.2 1013.0 0.0
26/04:30pm 24.0 21.1 1.6 23 10.7 N 6 13 3 7 1013.4 1013.2 0.0
26/04:00pm 24.2 21.7 3.5 26 10.3 N 6 17 3 9 1013.5 1013.3 0.0
26/03:30pm 24.1 21.3 2.3 24 10.6 N 6 15 3 8 1013.6 1013.4 0.0
26/03:00pm 23.6 20.7 1.3 23 10.6 NE 6 13 3 7 1013.9 1013.7 0.0
26/02:30pm 23.6 21.2 4.5 29 9.6 NNE 6 13 3 7 1014.4 1014.1 0.0
26/02:00pm 23.2 20.4 3.2 27 9.8 N 7 17 4 9 1014.8 1014.5 0.0
26/01:30pm 22.7 19.7 1.7 25 10.0 NNW 7 19 4 10 1015.0 1014.7 0.0
26/01:00pm 22.6 19.9 3.7 29 9.3 NNW 7 17 4 9 1015.4 1015.2 0.0
26/12:30pm 22.5 20.1 4.1 30 9.1 NNE 6 17 3 9 1015.7 1015.5 0.0
26/12:00pm 21.5 18.7 2.2 28 9.2 NNE 6 19 3 10 1016.1 1015.9 0.0
26/11:30am 21.8 19.3 4.8 33 8.5 NNW 7 19 4 10 1016.3 1016.1 0.0
26/11:00am 21.5 19.0 5.0 34 8.3 NNE 7 13 4 7 1016.3 1016.1 0.0
26/10:30am 19.7 16.9 2.1 31 8.2 N 6 15 3 8 1016.7 1016.5 0.0
26/10:00am 19.4 16.7 2.7 33 7.9 NE 6 15 3 8 1016.8 1016.6 0.0
26/09:30am 18.4 16.0 4.2 39 6.9 NW 6 15 3 8 1016.8 1016.6 0.0
26/09:00am 17.6 15.1 3.9 40 6.5 N 6 13 3 7 1016.9 1016.7 0.0
26/08:30am 16.6 14.5 3.7 42 6.1 NNE 4 11 2 6 1017.0 1016.8 0.0
26/08:00am 14.8 13.1 4.2 49 5.0 W 2 6 1 3 1016.9 1016.7 0.0
26/07:30am 12.4 11.1 3.9 56 3.9 CALM 0 2 0 1 1016.8 1016.6 0.0
26/07:00am 11.0 9.1 2.6 56 3.7 N 2 6 1 3 1016.8 1016.6 0.0
26/06:30am 10.0 7.7 2.6 60 3.2 NNE 4 11 2 6 1016.7 1016.5 0.0
26/06:00am 9.6 7.4 3.1 64 2.9 N 4 9 2 5 1016.6 1016.4 0.0
26/05:30am 9.9 7.1 3.4 64 2.9 NNE 7 13 4 7 1016.5 1016.3 0.0
26/05:00am 10.2 6.7 3.7 64 2.9 NNE 11 20 6 11 1016.4 1016.2 0.0
26/04:30am 10.8 7.1 4.3 64 3.0 NE 13 20 7 11 1016.6 1016.4 0.0
26/04:00am 10.9 6.8 4.6 65 2.9 NE 15 24 8 13 1016.6 1016.4 0.0
26/03:30am 10.8 6.5 5.1 68 2.6 NE 17 26 9 14 1016.6 1016.4 0.0
26/03:00am 10.6 6.0 5.4 70 2.4 NE 19 28 10 15 1016.8 1016.6 0.0
26/02:30am 10.8 5.7 5.8 71 2.4 NE 22 32 12 17 1016.9 1016.7 0.0
26/02:00am 11.2 5.3 5.9 70 2.5 NE 26 35 14 19 1017.3 1017.0 0.0
26/01:30am 10.9 5.1 6.1 72 2.3 NE 26 33 14 18 1017.5 1017.2 0.0
26/01:00am 10.7 5.3 6.5 75 2.0 NE 24 33 13 18 1017.9 1017.7 0.0
26/12:30am 10.5 5.7 7.4 81 1.5 NE 22 32 12 17 1018.3 1018.1 0.0
26/12:00am 10.0 5.8 7.6 85 1.2 ENE 19 26 10 14 1018.6 1018.4 0.0
 
Date/Time
CDT
Temp
°C
App
Temp
°C
Dew
Point
°C
Rel
Hum
%
Delta-T
°C
Wind Press
QNH
hPa
Press
MSL
hPa
Rain since
9am
mm
Dir  Spd
km/h
Gust
km/h
Spd
kts
Gust
kts
25/11:30pm 8.8 4.7 7.7 93 0.5 ENE 19 20 10 11 1018.7 1018.5 0.0
25/11:00pm 9.3 5.3 8.4 94 0.4 E 19 22 10 12 1019.2 1019.0 0.0
25/10:30pm 9.3 4.6 7.9 91 0.7 E 22 28 12 15 1019.2 1019.0 0.0
25/10:00pm 9.0 5.6 7.5 90 0.7 E 15 20 8 11 1019.4 1019.2 0.0
25/09:30pm 8.6 5.1 7.1 90 0.7 ESE 15 19 8 10 1019.4 1019.2 0.0
25/09:00pm 9.0 5.9 7.1 88 0.9 ESE 13 20 7 11 1019.4 1019.2 0.0
25/08:30pm 8.8 5.2 6.9 88 0.9 E 15 20 8 11 1019.0 1018.8 0.0
25/08:00pm 8.9 5.6 6.5 85 1.1 ESE 13 17 7 9 1019.1 1018.9 0.0
25/07:30pm 9.6 6.4 6.9 83 1.3 SE 13 15 7 8 1019.0 1018.8 0.0
25/07:00pm 10.8 7.7 7.1 78 1.8 ESE 13 17 7 9 1018.9 1018.7 0.0
25/06:30pm 11.4 7.9 7.3 76 2.0 SE 15 19 8 10 1018.7 1018.5 0.0
25/06:00pm 11.8 8.3 7.1 73 2.3 SE 15 20 8 11 1018.8 1018.6 0.0
25/05:30pm 12.4 8.6 7.5 72 2.4 ESE 17 20 9 11 1018.8 1018.6 0.0
25/05:00pm 12.9 9.2 8.0 72 2.5 SE 17 22 9 12 1019.0 1018.8 0.0
25/04:30pm 13.3 10.0 8.2 71 2.6 SE 15 22 8 12 1019.2 1019.0 0.0
25/04:00pm 13.5 10.3 8.6 72 2.5 SSE 15 20 8 11 1019.6 1019.4 0.0
25/03:30pm 14.4 11.7 8.8 69 2.9 SE 13 17 7 9 1019.7 1019.5 0.0
25/03:00pm 14.0 10.1 8.6 70 2.8 SSE 19 24 10 13 1019.9 1019.7 0.0
25/02:30pm 15.1 12.6 6.7 57 4.2 ENE 9 15 5 8 1020.5 1020.3 0.0
25/02:00pm 14.3 11.5 5.1 54 4.4 ENE 9 15 5 8 1021.1 1020.9 0.0
25/01:30pm 13.9 11.0 4.5 53 4.4 ENE 9 17 5 9 1021.4 1021.2 0.0
25/01:00pm 14.0 10.6 6.1 59 3.8 ENE 13 20 7 11 1021.6 1021.4 0.0
25/12:30pm 13.0 9.5 5.4 60 3.6 NE 13 26 7 14 1022.1 1021.9 0.0
25/12:00pm 12.0 7.4 3.5 56 3.8 NE 17 22 9 12 1022.6 1022.5 0.0
25/11:30am 12.2 7.9 5.4 63 3.2 E 17 26 9 14 1022.8 1022.7 0.0
25/11:00am 11.5 6.2 5.2 65 2.9 ENE 22 28 12 15 1023.1 1023.0 0.0
25/10:30am 11.0 5.7 5.1 67 2.7 E 22 30 12 16 1023.5 1023.3 0.0
25/10:00am 10.4 4.8 5.2 70 2.4 E 24 32 13 17 1023.6 1023.4 0.0
25/09:30am 9.8 3.3 4.6 70 2.4 E 28 35 15 19 1023.7 1023.5 0.0
25/09:00am 9.4 3.0 5.0 74 2.0 ENE 28 39 15 21 1023.8 1023.6 0.0
25/08:30am 8.8 3.0 4.6 75 1.9 ENE 24 35 13 19 1023.6 1023.4 0.0
25/08:00am 8.3 2.2 4.9 79 1.5 E 26 39 14 21 1023.3 1023.2 0.0
25/07:30am 7.8 2.6 5.4 85 1.1 ENE 22 32 12 17 1023.1 1023.0 0.0

Other formats

Comma delimited format used in spreadsheet applications
http://www.bom.gov.au/fwo/IDS60801/IDS60801.94811.axf

JavaScript Object Notation format (JSON) in row-major order
http://www.bom.gov.au/fwo/IDS60801/IDS60801.94811.json

Data quality

Most of these data are generated automatically and are frequently updated. Quality checks on data are not normally performed. It is possible for incorrect values to appear. Refer to information at About Latest Weather Observations and please check the disclaimer before using these data.